createdAt,value
2023-09-27T00:00:29.668Z,13.90
2023-09-27T00:02:59.128Z,7.55
2023-09-27T00:05:29.193Z,7.95
2023-09-27T00:07:57.531Z,9.45
2023-09-27T00:10:25.860Z,8.10
2023-09-27T00:12:53.808Z,8.52
2023-09-27T00:15:21.582Z,9.60
2023-09-27T00:17:49.804Z,9.80
2023-09-27T00:20:20.711Z,9.48
2023-09-27T00:22:50.597Z,12.77
2023-09-27T00:25:18.468Z,13.77
2023-09-27T00:27:46.561Z,13.05
2023-09-27T00:30:15.842Z,10.23
2023-09-27T00:32:45.532Z,7.78
2023-09-27T00:35:20.228Z,8.85
2023-09-27T00:37:50.271Z,11.68
2023-09-27T00:40:19.479Z,11.38
2023-09-27T00:42:48.681Z,13.50
2023-09-27T00:45:18.200Z,9.05
2023-09-27T00:47:48.233Z,12.35
2023-09-27T00:50:16.860Z,11.00
2023-09-27T00:52:46.206Z,14.93
2023-09-27T00:55:18.296Z,16.95
2023-09-27T00:57:46.611Z,13.95
2023-09-27T01:00:16.098Z,10.55
2023-09-27T01:02:43.984Z,10.13
2023-09-27T01:05:12.274Z,10.45
2023-09-27T01:07:41.499Z,9.52
2023-09-27T01:10:10.880Z,11.30
2023-09-27T01:12:40.397Z,9.88
2023-09-27T01:15:09.497Z,9.60
2023-09-27T01:17:37.552Z,9.45
2023-09-27T01:20:12.500Z,12.98
2023-09-27T01:22:40.268Z,12.02
2023-09-27T01:25:17.263Z,17.33
2023-09-27T01:27:45.985Z,10.63
2023-09-27T01:30:13.973Z,12.07
2023-09-27T01:32:43.924Z,11.95
2023-09-27T01:35:11.876Z,11.05
2023-09-27T01:37:39.713Z,8.60
2023-09-27T01:40:11.879Z,10.70
2023-09-27T01:42:44.367Z,11.38
2023-09-27T01:45:13.920Z,9.93
2023-09-27T01:47:42.103Z,11.07
2023-09-27T01:50:11.077Z,11.27
2023-09-27T01:52:39.233Z,12.00
2023-09-27T01:55:07.286Z,11.68
2023-09-27T01:57:36.612Z,10.40
2023-09-27T02:00:06.964Z,9.77
2023-09-27T02:02:40.472Z,12.40
2023-09-27T02:05:09.885Z,9.75
2023-09-27T02:07:39.406Z,11.10
2023-09-27T02:10:07.741Z,12.13
2023-09-27T02:12:37.953Z,11.70
2023-09-27T02:15:06.703Z,14.43
2023-09-27T02:17:34.652Z,12.02
2023-09-27T02:20:06.331Z,12.95
2023-09-27T02:22:34.320Z,13.95
2023-09-27T02:25:02.228Z,13.93
2023-09-27T02:27:30.051Z,10.82
2023-09-27T02:29:59.174Z,10.80
2023-09-27T02:32:27.019Z,11.45
2023-09-27T02:34:54.780Z,13.55
2023-09-27T02:37:22.633Z,15.82
2023-09-27T02:39:50.429Z,14.25
2023-09-27T02:42:18.321Z,13.15
2023-09-27T02:44:46.530Z,14.30
2023-09-27T02:47:15.704Z,11.20
2023-09-27T02:49:43.424Z,11.57
2023-09-27T02:52:12.668Z,11.60
2023-09-27T02:54:40.395Z,12.38
2023-09-27T02:57:08.163Z,12.93
2023-09-27T02:59:35.972Z,11.70
2023-09-27T03:02:05.658Z,11.43
2023-09-27T03:04:35.792Z,13.07
2023-09-27T03:07:03.910Z,12.13
2023-09-27T03:09:31.820Z,12.10
2023-09-27T03:11:59.609Z,13.50
2023-09-27T03:14:27.460Z,18.23
2023-09-27T03:16:55.369Z,13.30
2023-09-27T03:19:23.573Z,12.30
2023-09-27T03:21:53.240Z,13.77
2023-09-27T03:24:21.008Z,13.82
2023-09-27T03:26:49.172Z,12.75
2023-09-27T03:29:17.047Z,10.60
2023-09-27T03:31:45.864Z,13.75
2023-09-27T03:34:13.576Z,15.35
2023-09-27T03:36:41.413Z,14.40
2023-09-27T03:39:10.475Z,15.57
2023-09-27T03:41:40.096Z,13.50
2023-09-27T03:44:08.594Z,13.52
2023-09-27T03:46:36.792Z,13.70
2023-09-27T03:49:04.792Z,14.05
2023-09-27T03:51:32.471Z,12.13
2023-09-27T03:54:00.257Z,12.88
2023-09-27T03:56:30.243Z,16.02
2023-09-27T03:58:59.258Z,17.08
2023-09-27T04:01:27.220Z,16.45
2023-09-27T04:03:55.214Z,15.10
2023-09-27T04:06:23.039Z,13.98
2023-09-27T04:08:51.041Z,10.95
2023-09-27T04:11:18.754Z,11.43
2023-09-27T04:13:49.519Z,12.18
2023-09-27T04:16:17.337Z,12.95
2023-09-27T04:18:45.059Z,15.57
2023-09-27T04:21:13.511Z,11.30
2023-09-27T04:23:43.596Z,15.25
2023-09-27T04:26:11.348Z,11.50
2023-09-27T04:28:39.383Z,14.05
2023-09-27T04:31:08.644Z,17.10
2023-09-27T04:33:36.359Z,12.20
2023-09-27T04:36:04.234Z,11.60
2023-09-27T04:38:31.962Z,11.27
2023-09-27T04:40:59.746Z,11.52
2023-09-27T04:43:27.590Z,12.07
2023-09-27T04:45:55.372Z,13.48
2023-09-27T04:48:24.450Z,16.10
2023-09-27T04:50:52.430Z,14.15
2023-09-27T04:53:20.168Z,14.63
2023-09-27T04:55:49.465Z,14.43
2023-09-27T04:58:17.544Z,14.02
2023-09-27T05:00:46.150Z,13.00
2023-09-27T05:03:13.983Z,13.60
2023-09-27T05:05:43.466Z,14.95
2023-09-27T05:08:11.238Z,11.63
2023-09-27T05:10:38.983Z,11.85
2023-09-27T05:13:07.231Z,15.18
2023-09-27T05:15:35.073Z,14.85
2023-09-27T05:18:02.972Z,18.08
2023-09-27T05:20:30.735Z,12.32
2023-09-27T05:23:00.642Z,12.57
2023-09-27T05:25:28.392Z,11.75
2023-09-27T05:27:58.059Z,9.50
2023-09-27T05:30:25.826Z,14.82
2023-09-27T05:32:54.348Z,16.27
2023-09-27T05:35:22.517Z,10.85
2023-09-27T05:37:50.287Z,9.85
2023-09-27T05:40:19.417Z,13.30
2023-09-27T05:42:47.190Z,14.90
2023-09-27T05:45:15.077Z,16.88
2023-09-27T05:47:43.422Z,16.40
2023-09-27T05:50:14.487Z,14.27
2023-09-27T05:52:44.864Z,12.27
2023-09-27T05:55:13.062Z,13.27
2023-09-27T05:57:42.276Z,19.42
2023-09-27T06:00:17.145Z,16.40
2023-09-27T06:02:45.111Z,13.63
2023-09-27T06:05:13.660Z,10.25
2023-09-27T06:07:41.537Z,13.13
2023-09-27T06:10:10.200Z,14.48
2023-09-27T06:12:37.941Z,15.07
2023-09-27T06:15:08.257Z,14.13
2023-09-27T06:17:36.179Z,16.30
2023-09-27T06:20:07.261Z,14.60
2023-09-27T06:22:35.616Z,11.48
2023-09-27T06:25:03.499Z,12.43
2023-09-27T06:27:31.605Z,13.57
2023-09-27T06:29:59.335Z,12.93
2023-09-27T06:32:28.724Z,14.73
2023-09-27T06:34:56.678Z,10.25
2023-09-27T06:37:24.430Z,13.63
2023-09-27T06:39:52.248Z,12.18
2023-09-27T06:42:20.264Z,10.00
2023-09-27T06:44:48.112Z,11.10
2023-09-27T06:47:15.976Z,13.85
2023-09-27T06:49:45.264Z,12.18
2023-09-27T06:52:12.992Z,11.63
2023-09-27T06:54:41.832Z,11.18
2023-09-27T06:57:09.528Z,11.18
2023-09-27T06:59:37.517Z,10.30
2023-09-27T07:02:06.343Z,10.65
2023-09-27T07:04:34.396Z,10.50
2023-09-27T07:07:03.724Z,10.77
2023-09-27T07:09:34.232Z,12.80
2023-09-27T07:12:03.126Z,14.77
2023-09-27T07:14:30.929Z,12.77
2023-09-27T07:17:01.872Z,11.90
2023-09-27T07:19:32.215Z,10.73
2023-09-27T07:22:00.509Z,11.52
2023-09-27T07:24:32.167Z,11.07
2023-09-27T07:26:59.895Z,9.88
2023-09-27T07:29:28.572Z,8.88
2023-09-27T07:31:56.422Z,10.00
2023-09-27T07:34:24.129Z,11.02
2023-09-27T07:36:52.485Z,12.88
2023-09-27T07:39:21.442Z,12.98
2023-09-27T07:41:51.087Z,11.05
2023-09-27T07:44:19.335Z,14.15
2023-09-27T07:46:47.347Z,11.52
2023-09-27T07:49:15.096Z,10.88
2023-09-27T07:51:43.052Z,10.25
2023-09-27T07:54:13.499Z,9.98
2023-09-27T07:56:41.874Z,9.48
2023-09-27T07:59:11.060Z,10.50
2023-09-27T08:01:38.942Z,11.73
2023-09-27T08:04:12.024Z,8.68
2023-09-27T08:06:41.056Z,10.95
2023-09-27T08:09:14.820Z,11.15
2023-09-27T08:11:48.676Z,12.05
2023-09-27T08:14:19.722Z,11.38
2023-09-27T08:16:48.108Z,12.95
2023-09-27T08:19:17.081Z,8.40
2023-09-27T08:21:44.777Z,10.68
2023-09-27T08:24:12.540Z,10.20
2023-09-27T08:26:40.329Z,9.63
2023-09-27T08:29:09.083Z,9.40
2023-09-27T08:31:39.176Z,9.85
2023-09-27T08:34:07.194Z,11.32
2023-09-27T08:36:35.172Z,8.98
2023-09-27T08:39:03.508Z,9.63
2023-09-27T08:41:32.348Z,9.07
2023-09-27T08:44:00.477Z,6.75
2023-09-27T08:46:31.476Z,9.50
2023-09-27T08:49:01.811Z,12.60
2023-09-27T08:51:31.040Z,6.97
2023-09-27T08:53:59.195Z,7.45
2023-09-27T08:56:29.433Z,8.80
2023-09-27T08:58:58.854Z,6.28
2023-09-27T09:01:27.408Z,14.15
2023-09-27T09:03:55.558Z,10.27
2023-09-27T09:06:25.992Z,25.98
2023-09-27T09:08:54.150Z,9.82
2023-09-27T09:11:24.242Z,11.60
2023-09-27T09:14:04.773Z,16.35
2023-09-27T09:16:40.860Z,7.32
2023-09-27T09:19:32.839Z,6.07
2023-09-27T09:22:09.807Z,8.15
2023-09-27T09:24:38.088Z,7.10
2023-09-27T09:27:08.788Z,7.15
2023-09-27T09:29:50.061Z,7.13
2023-09-27T09:32:19.992Z,6.47
2023-09-27T09:34:49.354Z,7.05
2023-09-27T09:37:22.584Z,6.78
2023-09-27T09:39:52.840Z,6.07
2023-09-27T09:42:34.379Z,12.05
2023-09-27T09:45:06.822Z,6.25
2023-09-27T09:47:36.547Z,8.80
2023-09-27T09:50:07.818Z,8.10
2023-09-27T09:52:41.128Z,7.72
2023-09-27T09:55:19.987Z,6.85
2023-09-27T09:58:00.570Z,6.25
2023-09-27T10:00:28.912Z,19.33
2023-09-27T10:03:10.855Z,14.20
2023-09-27T10:05:40.058Z,6.78
2023-09-27T10:08:09.436Z,6.63
2023-09-27T10:10:38.395Z,5.93
2023-09-27T10:13:09.089Z,5.40
2023-09-27T10:15:38.254Z,4.90
2023-09-27T10:18:38.266Z,5.50
2023-09-27T10:21:09.230Z,5.28
2023-09-27T10:23:59.762Z,6.10
2023-09-27T10:26:43.609Z,7.28
2023-09-27T10:29:15.156Z,6.13
2023-09-27T10:32:16.443Z,6.90
2023-09-27T10:34:44.293Z,6.60
2023-09-27T10:37:19.370Z,7.38
2023-09-27T10:40:21.141Z,6.03
2023-09-27T10:42:49.453Z,6.50
2023-09-27T10:45:18.824Z,5.22
2023-09-27T10:47:48.223Z,5.65
2023-09-27T10:50:17.698Z,5.85
2023-09-27T10:52:45.591Z,5.53
2023-09-27T10:55:15.268Z,5.72
2023-09-27T10:57:44.451Z,5.10
2023-09-27T11:00:14.776Z,7.03
2023-09-27T11:02:43.892Z,6.15
2023-09-27T11:05:11.805Z,5.22
2023-09-27T11:07:47.702Z,4.97
2023-09-27T11:10:33.449Z,4.68
2023-09-27T11:13:14.166Z,4.30
2023-09-27T11:15:43.751Z,4.88
2023-09-27T11:18:12.376Z,4.80
2023-09-27T11:20:40.796Z,6.00
2023-09-27T11:23:09.345Z,5.30
2023-09-27T11:25:38.828Z,4.80
2023-09-27T11:28:06.751Z,5.68
2023-09-27T11:30:36.950Z,4.55
2023-09-27T11:33:07.470Z,4.35
2023-09-27T11:35:36.149Z,4.50
2023-09-27T11:38:10.265Z,4.28
2023-09-27T11:40:39.351Z,3.97
2023-09-27T11:43:07.496Z,5.40
2023-09-27T11:45:50.142Z,4.50
2023-09-27T11:48:32.251Z,7.60
2023-09-27T11:51:00.348Z,6.00
2023-09-27T11:53:28.822Z,3.90
2023-09-27T11:55:57.281Z,4.05
2023-09-27T11:58:25.264Z,5.93
2023-09-27T12:00:54.316Z,4.25
2023-09-27T12:03:22.348Z,4.32
2023-09-27T12:05:50.585Z,3.92
2023-09-27T12:08:18.713Z,3.60
2023-09-27T12:10:46.423Z,3.60
2023-09-27T12:13:14.126Z,3.78
2023-09-27T12:15:42.351Z,4.60
2023-09-27T12:18:11.995Z,7.53
2023-09-27T12:20:42.582Z,5.60
2023-09-27T12:23:12.031Z,4.10
2023-09-27T12:25:40.014Z,3.20
2023-09-27T12:28:07.835Z,2.92
2023-09-27T12:30:35.786Z,2.78
2023-09-27T12:33:04.121Z,3.15
2023-09-27T12:35:33.799Z,3.58
2023-09-27T12:38:05.134Z,3.22
2023-09-27T12:40:33.121Z,5.00
2023-09-27T12:43:01.116Z,4.03
2023-09-27T12:45:28.990Z,4.35
2023-09-27T12:47:56.848Z,4.68
2023-09-27T12:50:27.997Z,4.85
2023-09-27T12:52:57.425Z,1.85
2023-09-27T12:55:25.810Z,3.70
2023-09-27T12:57:54.177Z,2.10
2023-09-27T13:00:22.745Z,2.30
2023-09-27T13:02:50.685Z,2.00
2023-09-27T13:05:18.722Z,3.33
2023-09-27T13:07:46.471Z,4.18
2023-09-27T13:10:15.693Z,3.00
2023-09-27T13:12:44.109Z,3.45
2023-09-27T13:15:12.659Z,2.28
2023-09-27T13:17:40.655Z,2.00
2023-09-27T13:20:11.314Z,2.17
2023-09-27T13:22:39.619Z,2.50
2023-09-27T13:25:08.155Z,1.70
2023-09-27T13:27:37.452Z,1.80
2023-09-27T13:30:09.496Z,2.08
2023-09-27T13:32:39.416Z,1.83
2023-09-27T13:35:08.142Z,2.72
2023-09-27T13:37:36.465Z,1.88
2023-09-27T13:40:13.949Z,4.95
2023-09-27T13:42:43.436Z,1.92
2023-09-27T13:45:14.408Z,2.47
2023-09-27T13:47:42.581Z,1.88
2023-09-27T13:50:10.636Z,1.70
2023-09-27T13:52:38.850Z,2.25
2023-09-27T13:55:12.045Z,3.22
2023-09-27T13:57:40.089Z,2.55
2023-09-27T14:00:14.004Z,3.85
2023-09-27T14:02:44.088Z,3.53
2023-09-27T14:05:12.733Z,2.58
2023-09-27T14:07:41.364Z,3.15
2023-09-27T14:10:10.208Z,2.83
2023-09-27T14:12:37.896Z,3.88
2023-09-27T14:15:06.484Z,5.60
2023-09-27T14:17:35.646Z,2.92
2023-09-27T14:20:03.649Z,3.00
2023-09-27T14:22:31.400Z,3.95
2023-09-27T14:24:59.178Z,3.35
2023-09-27T14:27:27.043Z,3.13
2023-09-27T14:29:54.772Z,2.60
2023-09-27T14:32:23.567Z,3.28
2023-09-27T14:34:57.529Z,2.97
2023-09-27T14:37:26.262Z,5.63
2023-09-27T14:39:54.030Z,2.70
2023-09-27T14:42:22.547Z,2.65
2023-09-27T14:44:50.256Z,2.78
2023-09-27T14:47:18.687Z,2.90
2023-09-27T14:49:46.503Z,2.45
2023-09-27T14:52:15.669Z,2.60
2023-09-27T14:54:43.696Z,2.90
2023-09-27T14:57:11.391Z,3.80
2023-09-27T14:59:39.096Z,2.58
2023-09-27T15:02:07.527Z,2.50
2023-09-27T15:04:35.388Z,3.50
2023-09-27T15:07:03.911Z,2.20
2023-09-27T15:09:32.964Z,2.47
2023-09-27T15:12:00.660Z,2.20
2023-09-27T15:14:28.426Z,2.35
2023-09-27T15:16:56.173Z,2.60
2023-09-27T15:19:24.019Z,2.75
2023-09-27T15:21:51.716Z,2.60
2023-09-27T15:24:19.432Z,4.40
2023-09-27T15:26:48.736Z,2.90
2023-09-27T15:29:16.498Z,3.75
2023-09-27T15:31:44.584Z,2.95
2023-09-27T15:34:12.390Z,3.10
2023-09-27T15:36:40.502Z,2.63
2023-09-27T15:39:08.421Z,5.28
2023-09-27T15:41:36.111Z,3.60
2023-09-27T15:44:06.083Z,2.42
2023-09-27T15:46:40.889Z,2.85
2023-09-27T15:49:08.849Z,2.97
2023-09-27T15:51:38.632Z,4.35
2023-09-27T15:54:16.233Z,2.70
2023-09-27T15:56:46.497Z,2.50
2023-09-27T15:59:15.945Z,2.60
2023-09-27T16:01:43.974Z,3.17
2023-09-27T16:04:12.484Z,3.63
2023-09-27T16:06:41.146Z,3.05
2023-09-27T16:09:11.605Z,3.33
2023-09-27T16:11:40.082Z,4.72
2023-09-27T16:14:09.305Z,3.97
2023-09-27T16:16:38.398Z,3.35
2023-09-27T16:19:06.319Z,3.95
2023-09-27T16:21:34.144Z,3.53
2023-09-27T16:24:02.412Z,3.25
2023-09-27T16:26:31.104Z,2.67
2023-09-27T16:28:58.853Z,2.60
2023-09-27T16:31:33.340Z,2.50
2023-09-27T16:34:03.821Z,2.60
2023-09-27T16:36:31.799Z,2.83
2023-09-27T16:39:01.093Z,3.22
2023-09-27T16:41:29.058Z,3.03
2023-09-27T16:43:56.958Z,3.10
2023-09-27T16:46:24.923Z,4.93
2023-09-27T16:48:52.680Z,4.35
2023-09-27T16:51:22.020Z,4.65
2023-09-27T16:53:49.887Z,4.88
2023-09-27T16:56:17.584Z,3.95
2023-09-27T16:58:45.378Z,6.38
2023-09-27T17:01:18.390Z,4.63
2023-09-27T17:03:46.367Z,5.70
2023-09-27T17:06:18.701Z,7.68
2023-09-27T17:08:49.181Z,5.60
2023-09-27T17:11:23.043Z,4.30
2023-09-27T17:13:51.155Z,4.90
2023-09-27T17:16:23.045Z,4.93
2023-09-27T17:18:51.735Z,7.03
2023-09-27T17:21:19.548Z,6.38
2023-09-27T17:23:47.283Z,6.75
2023-09-27T17:26:16.388Z,7.80
2023-09-27T17:28:44.392Z,5.72
2023-09-27T17:31:12.790Z,7.38
2023-09-27T17:33:41.750Z,6.18
2023-09-27T17:36:09.567Z,8.07
2023-09-27T17:38:37.752Z,5.88
2023-09-27T17:41:05.472Z,5.65
2023-09-27T17:43:35.541Z,6.22
2023-09-27T17:46:05.115Z,4.60
2023-09-27T17:48:33.051Z,5.82
2023-09-27T17:51:00.948Z,15.00
2023-09-27T17:53:29.535Z,18.15
2023-09-27T17:55:57.503Z,18.08
2023-09-27T17:58:25.225Z,12.75
2023-09-27T18:00:54.774Z,10.63
2023-09-27T18:03:24.456Z,9.07
2023-09-27T18:05:52.250Z,7.90
2023-09-27T18:08:19.989Z,7.43
2023-09-27T18:10:48.789Z,7.10
2023-09-27T18:13:16.539Z,9.20
2023-09-27T18:15:44.966Z,17.58
2023-09-27T18:18:14.128Z,18.85
2023-09-27T18:20:41.896Z,22.63
2023-09-27T18:23:09.782Z,25.67
2023-09-27T18:25:37.565Z,28.42
2023-09-27T18:28:05.802Z,23.60
2023-09-27T18:30:33.519Z,19.83
2023-09-27T18:33:01.266Z,21.70
2023-09-27T18:35:30.722Z,25.73
2023-09-27T18:37:58.635Z,21.67
2023-09-27T18:40:26.790Z,18.27
2023-09-27T18:42:54.580Z,13.32
2023-09-27T18:45:22.459Z,12.75
2023-09-27T18:47:52.051Z,11.82
2023-09-27T18:50:20.958Z,13.43
2023-09-27T18:52:50.324Z,11.05
2023-09-27T18:55:18.154Z,10.05
2023-09-27T18:57:45.961Z,11.88
2023-09-27T19:00:14.452Z,15.30
2023-09-27T19:02:43.092Z,13.10
2023-09-27T19:05:11.495Z,10.55
2023-09-27T19:07:39.261Z,11.43
2023-09-27T19:10:10.433Z,10.63
2023-09-27T19:12:38.209Z,13.50
2023-09-27T19:15:06.525Z,13.55
2023-09-27T19:17:34.612Z,12.40
2023-09-27T19:20:06.457Z,10.15
2023-09-27T19:22:34.345Z,13.40
2023-09-27T19:25:02.392Z,16.60
2023-09-27T19:27:32.042Z,16.77
2023-09-27T19:29:59.891Z,15.32
2023-09-27T19:32:28.376Z,15.73
2023-09-27T19:34:56.292Z,14.93
2023-09-27T19:37:24.077Z,11.75
2023-09-27T19:39:51.909Z,11.27
2023-09-27T19:42:20.005Z,12.48
2023-09-27T19:44:49.081Z,8.02
2023-09-27T19:47:16.843Z,9.38
2023-09-27T19:49:44.580Z,7.47
2023-09-27T19:52:12.410Z,7.57
2023-09-27T19:54:40.087Z,9.65
2023-09-27T19:57:07.820Z,8.48
2023-09-27T19:59:36.673Z,9.20
2023-09-27T20:02:06.282Z,9.10
2023-09-27T20:04:34.074Z,8.13
2023-09-27T20:07:01.809Z,5.90
2023-09-27T20:09:29.524Z,4.90
2023-09-27T20:11:57.393Z,5.13
2023-09-27T20:14:25.272Z,5.50
2023-09-27T20:16:53.137Z,5.03
2023-09-27T20:19:22.249Z,5.28
2023-09-27T20:21:55.897Z,4.80
2023-09-27T20:24:23.954Z,5.15
2023-09-27T20:26:51.762Z,6.35
2023-09-27T20:29:19.735Z,6.60
2023-09-27T20:31:47.541Z,7.60
2023-09-27T20:34:15.354Z,6.07
2023-09-27T20:36:44.693Z,11.43
2023-09-27T20:39:12.504Z,6.63
2023-09-27T20:41:40.342Z,7.45
2023-09-27T20:44:08.558Z,5.32
2023-09-27T20:46:36.411Z,6.47
2023-09-27T20:49:04.420Z,9.77
2023-09-27T20:51:32.234Z,9.23
2023-09-27T20:54:01.493Z,7.72
2023-09-27T20:56:29.334Z,6.47
2023-09-27T20:58:57.159Z,8.13
2023-09-27T21:01:26.091Z,6.30
2023-09-27T21:03:54.639Z,6.22
2023-09-27T21:06:26.733Z,5.20
2023-09-27T21:08:54.571Z,5.53
2023-09-27T21:11:25.595Z,6.38
2023-09-27T21:13:55.676Z,5.88
2023-09-27T21:16:24.823Z,5.68
2023-09-27T21:18:53.975Z,7.90
2023-09-27T21:21:23.621Z,5.70
2023-09-27T21:23:52.950Z,4.82
2023-09-27T21:26:21.465Z,5.15
2023-09-27T21:28:50.761Z,5.97
2023-09-27T21:31:18.674Z,6.65
2023-09-27T21:33:46.484Z,5.50
2023-09-27T21:36:15.304Z,7.78
2023-09-27T21:38:43.101Z,6.50
2023-09-27T21:41:10.855Z,7.63
2023-09-27T21:43:39.854Z,6.10
2023-09-27T21:46:18.380Z,6.30
2023-09-27T21:48:48.773Z,6.80
2023-09-27T21:51:16.944Z,7.45
2023-09-27T21:53:44.868Z,5.97
2023-09-27T21:56:14.927Z,6.05
2023-09-27T21:58:43.596Z,7.00
2023-09-27T22:01:12.802Z,7.50
2023-09-27T22:03:42.471Z,8.27
2023-09-27T22:06:11.505Z,10.70
2023-09-27T22:08:45.262Z,7.47
2023-09-27T22:11:13.163Z,7.20
2023-09-27T22:13:43.574Z,7.97
2023-09-27T22:16:11.921Z,5.95
2023-09-27T22:18:43.047Z,6.35
2023-09-27T22:21:19.580Z,5.15
2023-09-27T22:26:18.329Z,6.10
2023-09-27T22:28:47.995Z,6.93
2023-09-27T22:31:27.273Z,7.40
2023-09-27T22:33:57.930Z,6.55
2023-09-27T22:36:29.017Z,6.93
2023-09-27T22:38:56.826Z,7.18
2023-09-27T22:41:29.814Z,5.90
2023-09-27T22:43:57.804Z,5.05
2023-09-27T22:46:25.560Z,5.28
2023-09-27T22:48:53.805Z,4.78
2023-09-27T22:51:21.620Z,5.22
2023-09-27T22:53:50.899Z,6.10
2023-09-27T22:56:18.652Z,5.57
2023-09-27T22:58:46.466Z,5.30
2023-09-27T23:01:29.529Z,6.93
2023-09-27T23:03:59.377Z,5.22
2023-09-27T23:06:27.093Z,5.10
2023-09-27T23:09:01.074Z,5.38
2023-09-27T23:11:29.718Z,5.07
2023-09-27T23:13:59.651Z,6.15
2023-09-27T23:16:31.080Z,5.13
2023-09-27T23:19:01.544Z,6.50
2023-09-27T23:21:31.498Z,5.68
2023-09-27T23:24:22.068Z,5.72
2023-09-27T23:27:03.754Z,5.55
2023-09-27T23:29:37.647Z,5.60
2023-09-27T23:32:23.199Z,5.88
2023-09-27T23:34:51.681Z,5.85
2023-09-27T23:37:31.529Z,6.20
2023-09-27T23:40:01.566Z,7.78
2023-09-27T23:42:35.499Z,5.80
2023-09-27T23:45:09.822Z,4.72
2023-09-27T23:47:44.368Z,5.32
2023-09-27T23:50:16.248Z,6.70
2023-09-27T23:52:46.689Z,6.50
2023-09-27T23:55:16.972Z,5.45
2023-09-27T23:57:48.282Z,6.15
